sensor_id;sensor_type;location;lat;lon;timestamp;P1;durP1;ratioP1;P2;durP2;ratioP2
3789;SDS011;1910;49.042;9.028;2023-02-01T00:01:32;3.23;;;2.50;;
3789;SDS011;1910;49.042;9.028;2023-02-01T00:03:58;3.90;;;2.10;;
3789;SDS011;1910;49.042;9.028;2023-02-01T00:06:23;4.83;;;2.43;;
3789;SDS011;1910;49.042;9.028;2023-02-01T00:08:51;3.23;;;2.47;;
3789;SDS011;1910;49.042;9.028;2023-02-01T00:11:18;11.32;;;2.58;;
3789;SDS011;1910;49.042;9.028;2023-02-01T00:13:43;3.93;;;2.90;;
3789;SDS011;1910;49.042;9.028;2023-02-01T00:16:13;4.20;;;2.53;;
3789;SDS011;1910;49.042;9.028;2023-02-01T00:18:44;4.35;;;3.00;;
3789;SDS011;1910;49.042;9.028;2023-02-01T00:21:12;7.43;;;3.50;;
3789;SDS011;1910;49.042;9.028;2023-02-01T00:23:40;5.88;;;2.45;;
3789;SDS011;1910;49.042;9.028;2023-02-01T00:26:07;5.63;;;3.05;;
3789;SDS011;1910;49.042;9.028;2023-02-01T00:28:40;4.53;;;2.95;;
3789;SDS011;1910;49.042;9.028;2023-02-01T00:31:05;3.87;;;3.03;;
3789;SDS011;1910;49.042;9.028;2023-02-01T00:33:32;3.60;;;2.70;;
3789;SDS011;1910;49.042;9.028;2023-02-01T00:35:58;6.97;;;3.60;;
3789;SDS011;1910;49.042;9.028;2023-02-01T00:38:25;4.88;;;3.30;;
3789;SDS011;1910;49.042;9.028;2023-02-01T00:40:52;5.85;;;3.10;;
3789;SDS011;1910;49.042;9.028;2023-02-01T00:43:17;6.87;;;3.33;;
3789;SDS011;1910;49.042;9.028;2023-02-01T00:45:43;4.23;;;3.17;;
3789;SDS011;1910;49.042;9.028;2023-02-01T00:48:10;10.48;;;3.60;;
3789;SDS011;1910;49.042;9.028;2023-02-01T00:50:36;3.90;;;3.20;;
3789;SDS011;1910;49.042;9.028;2023-02-01T00:53:09;5.78;;;2.65;;
3789;SDS011;1910;49.042;9.028;2023-02-01T00:55:35;4.03;;;2.42;;
3789;SDS011;1910;49.042;9.028;2023-02-01T00:58:00;5.10;;;2.40;;
3789;SDS011;1910;49.042;9.028;2023-02-01T01:00:26;2.50;;;2.30;;
3789;SDS011;1910;49.042;9.028;2023-02-01T01:02:51;6.97;;;3.40;;
3789;SDS011;1910;49.042;9.028;2023-02-01T01:05:17;4.23;;;2.80;;
3789;SDS011;1910;49.042;9.028;2023-02-01T01:07:43;4.33;;;3.37;;
3789;SDS011;1910;49.042;9.028;2023-02-01T01:10:08;7.20;;;3.07;;
3789;SDS011;1910;49.042;9.028;2023-02-01T01:12:34;3.67;;;3.08;;
3789;SDS011;1910;49.042;9.028;2023-02-01T01:15:00;8.20;;;3.40;;
3789;SDS011;1910;49.042;9.028;2023-02-01T01:17:25;6.70;;;3.00;;
3789;SDS011;1910;49.042;9.028;2023-02-01T01:19:51;3.83;;;2.77;;
3789;SDS011;1910;49.042;9.028;2023-02-01T01:22:16;8.37;;;3.30;;
3789;SDS011;1910;49.042;9.028;2023-02-01T01:24:42;3.90;;;2.70;;
3789;SDS011;1910;49.042;9.028;2023-02-01T01:27:08;4.87;;;3.10;;
3789;SDS011;1910;49.042;9.028;2023-02-01T01:29:33;4.80;;;2.83;;
3789;SDS011;1910;49.042;9.028;2023-02-01T01:31:59;3.90;;;2.70;;
3789;SDS011;1910;49.042;9.028;2023-02-01T01:34:25;3.50;;;2.70;;
3789;SDS011;1910;49.042;9.028;2023-02-01T01:36:50;3.43;;;2.13;;
3789;SDS011;1910;49.042;9.028;2023-02-01T01:39:16;5.50;;;2.70;;
3789;SDS011;1910;49.042;9.028;2023-02-01T01:41:41;4.50;;;2.00;;
3789;SDS011;1910;49.042;9.028;2023-02-01T01:44:53;3.20;;;2.43;;
3789;SDS011;1910;49.042;9.028;2023-02-01T01:47:11;4.00;;;2.63;;
3789;SDS011;1910;49.042;9.028;2023-02-01T01:49:37;4.38;;;3.17;;
3789;SDS011;1910;49.042;9.028;2023-02-01T01:52:03;8.50;;;3.23;;
3789;SDS011;1910;49.042;9.028;2023-02-01T01:54:29;4.03;;;1.90;;
3789;SDS011;1910;49.042;9.028;2023-02-01T01:57:09;5.20;;;2.03;;
3789;SDS011;1910;49.042;9.028;2023-02-01T01:59:39;4.68;;;2.30;;
3789;SDS011;1910;49.042;9.028;2023-02-01T02:02:08;6.05;;;2.75;;
3789;SDS011;1910;49.042;9.028;2023-02-01T02:04:34;3.50;;;2.35;;
3789;SDS011;1910;49.042;9.028;2023-02-01T02:07:01;11.43;;;3.47;;
3789;SDS011;1910;49.042;9.028;2023-02-01T02:09:34;2.90;;;2.70;;
3789;SDS011;1910;49.042;9.028;2023-02-01T02:12:00;6.93;;;2.90;;
3789;SDS011;1910;49.042;9.028;2023-02-01T02:14:26;8.47;;;3.10;;
3789;SDS011;1910;49.042;9.028;2023-02-01T02:16:54;6.75;;;2.75;;
3789;SDS011;1910;49.042;9.028;2023-02-01T02:23:03;2.97;;;2.40;;
3789;SDS011;1910;49.042;9.028;2023-02-01T02:34:06;10.52;;;2.70;;
3789;SDS011;1910;49.042;9.028;2023-02-01T02:48:25;3.78;;;2.50;;
3789;SDS011;1910;49.042;9.028;2023-02-01T02:54:32;3.10;;;2.13;;
3789;SDS011;1910;49.042;9.028;2023-02-01T03:00:09;2.80;;;2.40;;
3789;SDS011;1910;49.042;9.028;2023-02-01T03:02:56;5.07;;;2.15;;
3789;SDS011;1910;49.042;9.028;2023-02-01T03:05:41;3.67;;;1.85;;
3789;SDS011;1910;49.042;9.028;2023-02-01T03:10:56;6.50;;;2.33;;
3789;SDS011;1910;49.042;9.028;2023-02-01T03:13:53;3.05;;;1.80;;
3789;SDS011;1910;49.042;9.028;2023-02-01T03:16:22;7.28;;;2.38;;
3789;SDS011;1910;49.042;9.028;2023-02-01T03:19:06;2.55;;;2.15;;
3789;SDS011;1910;49.042;9.028;2023-02-01T03:21:41;2.85;;;2.22;;
3789;SDS011;1910;49.042;9.028;2023-02-01T03:24:11;3.72;;;2.45;;
3789;SDS011;1910;49.042;9.028;2023-02-01T03:26:43;3.33;;;1.75;;
3789;SDS011;1910;49.042;9.028;2023-02-01T03:29:18;3.30;;;1.55;;
3789;SDS011;1910;49.042;9.028;2023-02-01T03:31:49;2.70;;;1.92;;
3789;SDS011;1910;49.042;9.028;2023-02-01T03:34:15;3.08;;;1.98;;
3789;SDS011;1910;49.042;9.028;2023-02-01T03:36:51;3.05;;;2.20;;
3789;SDS011;1910;49.042;9.028;2023-02-01T03:39:41;3.80;;;2.72;;
3789;SDS011;1910;49.042;9.028;2023-02-01T03:42:19;4.18;;;2.50;;
3789;SDS011;1910;49.042;9.028;2023-02-01T03:45:03;6.30;;;2.28;;
3789;SDS011;1910;49.042;9.028;2023-02-01T03:47:42;6.20;;;1.95;;
3789;SDS011;1910;49.042;9.028;2023-02-01T03:50:11;4.32;;;2.92;;
3789;SDS011;1910;49.042;9.028;2023-02-01T03:55:12;4.32;;;2.22;;
3789;SDS011;1910;49.042;9.028;2023-02-01T03:57:41;2.67;;;1.50;;
3789;SDS011;1910;49.042;9.028;2023-02-01T04:02:49;2.90;;;1.90;;
3789;SDS011;1910;49.042;9.028;2023-02-01T04:05:16;5.25;;;2.22;;
3789;SDS011;1910;49.042;9.028;2023-02-01T04:07:41;4.67;;;3.60;;
3789;SDS011;1910;49.042;9.028;2023-02-01T04:10:08;4.47;;;2.25;;
3789;SDS011;1910;49.042;9.028;2023-02-01T04:12:34;3.20;;;2.30;;
3789;SDS011;1910;49.042;9.028;2023-02-01T04:14:59;2.40;;;1.90;;
3789;SDS011;1910;49.042;9.028;2023-02-01T04:17:25;6.80;;;3.13;;
3789;SDS011;1910;49.042;9.028;2023-02-01T04:19:50;2.87;;;2.53;;
3789;SDS011;1910;49.042;9.028;2023-02-01T04:22:16;2.67;;;2.20;;
3789;SDS011;1910;49.042;9.028;2023-02-01T04:24:41;3.97;;;2.50;;
3789;SDS011;1910;49.042;9.028;2023-02-01T04:27:07;4.30;;;3.10;;
3789;SDS011;1910;49.042;9.028;2023-02-01T04:29:32;4.60;;;3.20;;
3789;SDS011;1910;49.042;9.028;2023-02-01T04:31:58;4.43;;;2.83;;
3789;SDS011;1910;49.042;9.028;2023-02-01T04:34:23;3.53;;;3.20;;
3789;SDS011;1910;49.042;9.028;2023-02-01T04:36:50;5.00;;;2.93;;
3789;SDS011;1910;49.042;9.028;2023-02-01T04:39:15;2.50;;;1.95;;
3789;SDS011;1910;49.042;9.028;2023-02-01T04:41:41;3.70;;;2.10;;
3789;SDS011;1910;49.042;9.028;2023-02-01T04:44:08;3.57;;;2.50;;
3789;SDS011;1910;49.042;9.028;2023-02-01T04:46:39;4.20;;;2.20;;
3789;SDS011;1910;49.042;9.028;2023-02-01T04:49:05;2.60;;;1.70;;
3789;SDS011;1910;49.042;9.028;2023-02-01T04:51:30;2.77;;;2.20;;
3789;SDS011;1910;49.042;9.028;2023-02-01T04:53:56;4.97;;;3.07;;
3789;SDS011;1910;49.042;9.028;2023-02-01T04:56:21;3.53;;;1.93;;
3789;SDS011;1910;49.042;9.028;2023-02-01T04:58:47;2.50;;;2.00;;
3789;SDS011;1910;49.042;9.028;2023-02-01T05:01:13;3.00;;;2.20;;
3789;SDS011;1910;49.042;9.028;2023-02-01T05:03:38;3.73;;;2.07;;
3789;SDS011;1910;49.042;9.028;2023-02-01T05:06:04;3.83;;;2.73;;
3789;SDS011;1910;49.042;9.028;2023-02-01T05:08:29;2.33;;;1.40;;
3789;SDS011;1910;49.042;9.028;2023-02-01T05:10:55;2.50;;;2.30;;
3789;SDS011;1910;49.042;9.028;2023-02-01T05:13:21;6.00;;;2.23;;
3789;SDS011;1910;49.042;9.028;2023-02-01T05:16:05;5.80;;;2.55;;
3789;SDS011;1910;49.042;9.028;2023-02-01T05:18:31;3.13;;;1.73;;
3789;SDS011;1910;49.042;9.028;2023-02-01T05:20:57;3.83;;;2.50;;
3789;SDS011;1910;49.042;9.028;2023-02-01T05:23:22;2.97;;;2.00;;
3789;SDS011;1910;49.042;9.028;2023-02-01T05:25:47;4.73;;;2.87;;
3789;SDS011;1910;49.042;9.028;2023-02-01T05:28:13;2.60;;;2.30;;
3789;SDS011;1910;49.042;9.028;2023-02-01T05:30:38;2.97;;;2.10;;
3789;SDS011;1910;49.042;9.028;2023-02-01T05:33:04;4.87;;;2.13;;
3789;SDS011;1910;49.042;9.028;2023-02-01T05:35:30;3.97;;;2.90;;
3789;SDS011;1910;49.042;9.028;2023-02-01T05:37:56;2.80;;;2.20;;
3789;SDS011;1910;49.042;9.028;2023-02-01T05:40:21;5.17;;;3.13;;
3789;SDS011;1910;49.042;9.028;2023-02-01T05:42:47;3.30;;;1.80;;
3789;SDS011;1910;49.042;9.028;2023-02-01T05:45:12;2.77;;;2.20;;
3789;SDS011;1910;49.042;9.028;2023-02-01T05:47:38;1.80;;;1.33;;
3789;SDS011;1910;49.042;9.028;2023-02-01T05:50:04;1.90;;;1.70;;
3789;SDS011;1910;49.042;9.028;2023-02-01T05:52:30;3.20;;;1.90;;
3789;SDS011;1910;49.042;9.028;2023-02-01T05:54:56;2.13;;;1.40;;
3789;SDS011;1910;49.042;9.028;2023-02-01T05:57:21;2.87;;;1.50;;
3789;SDS011;1910;49.042;9.028;2023-02-01T05:59:47;2.30;;;2.10;;
3789;SDS011;1910;49.042;9.028;2023-02-01T06:02:13;4.00;;;2.42;;
3789;SDS011;1910;49.042;9.028;2023-02-01T06:04:40;3.80;;;2.80;;
3789;SDS011;1910;49.042;9.028;2023-02-01T06:07:06;2.13;;;2.03;;
3789;SDS011;1910;49.042;9.028;2023-02-01T06:09:33;3.45;;;2.75;;
3789;SDS011;1910;49.042;9.028;2023-02-01T06:11:59;2.70;;;2.22;;
3789;SDS011;1910;49.042;9.028;2023-02-01T06:14:25;4.88;;;2.80;;
3789;SDS011;1910;49.042;9.028;2023-02-01T06:16:52;8.43;;;4.20;;
3789;SDS011;1910;49.042;9.028;2023-02-01T06:19:18;6.30;;;4.15;;
3789;SDS011;1910;49.042;9.028;2023-02-01T06:21:44;5.17;;;3.30;;
3789;SDS011;1910;49.042;9.028;2023-02-01T06:24:09;7.87;;;4.50;;
3789;SDS011;1910;49.042;9.028;2023-02-01T06:26:35;12.67;;;4.00;;
3789;SDS011;1910;49.042;9.028;2023-02-01T06:29:01;13.73;;;4.67;;
3789;SDS011;1910;49.042;9.028;2023-02-01T06:31:26;11.33;;;5.47;;
3789;SDS011;1910;49.042;9.028;2023-02-01T06:33:52;9.57;;;4.13;;
3789;SDS011;1910;49.042;9.028;2023-02-01T06:36:18;6.28;;;3.60;;
3789;SDS011;1910;49.042;9.028;2023-02-01T06:38:46;10.02;;;3.08;;
3789;SDS011;1910;49.042;9.028;2023-02-01T06:41:12;7.57;;;4.43;;
3789;SDS011;1910;49.042;9.028;2023-02-01T06:43:38;8.93;;;4.22;;
3789;SDS011;1910;49.042;9.028;2023-02-01T06:46:05;9.37;;;4.70;;
3789;SDS011;1910;49.042;9.028;2023-02-01T06:48:33;7.68;;;3.75;;
3789;SDS011;1910;49.042;9.028;2023-02-01T06:50:59;6.85;;;3.83;;
3789;SDS011;1910;49.042;9.028;2023-02-01T06:53:25;7.83;;;3.93;;
3789;SDS011;1910;49.042;9.028;2023-02-01T06:55:51;5.87;;;3.43;;
3789;SDS011;1910;49.042;9.028;2023-02-01T06:58:21;13.30;;;4.93;;
3789;SDS011;1910;49.042;9.028;2023-02-01T07:00:47;8.15;;;4.90;;
3789;SDS011;1910;49.042;9.028;2023-02-01T07:03:13;7.75;;;4.40;;
3789;SDS011;1910;49.042;9.028;2023-02-01T07:05:39;12.10;;;5.43;;
3789;SDS011;1910;49.042;9.028;2023-02-01T07:08:05;6.17;;;3.57;;
3789;SDS011;1910;49.042;9.028;2023-02-01T07:10:30;7.37;;;4.37;;
3789;SDS011;1910;49.042;9.028;2023-02-01T07:12:56;7.63;;;4.83;;
3789;SDS011;1910;49.042;9.028;2023-02-01T07:15:22;8.30;;;4.97;;
3789;SDS011;1910;49.042;9.028;2023-02-01T07:17:48;10.27;;;5.23;;
3789;SDS011;1910;49.042;9.028;2023-02-01T07:20:14;11.70;;;5.10;;
3789;SDS011;1910;49.042;9.028;2023-02-01T07:22:40;6.28;;;4.35;;
3789;SDS011;1910;49.042;9.028;2023-02-01T07:25:06;6.00;;;3.80;;
3789;SDS011;1910;49.042;9.028;2023-02-01T07:27:33;6.15;;;3.08;;
3789;SDS011;1910;49.042;9.028;2023-02-01T07:29:59;9.10;;;3.70;;
3789;SDS011;1910;49.042;9.028;2023-02-01T07:32:27;6.28;;;3.45;;
3789;SDS011;1910;49.042;9.028;2023-02-01T07:34:53;5.40;;;3.95;;
3789;SDS011;1910;49.042;9.028;2023-02-01T07:37:19;5.73;;;3.60;;
3789;SDS011;1910;49.042;9.028;2023-02-01T07:39:44;12.97;;;5.07;;
3789;SDS011;1910;49.042;9.028;2023-02-01T07:42:10;10.10;;;4.10;;
3789;SDS011;1910;49.042;9.028;2023-02-01T07:44:35;5.73;;;4.00;;
3789;SDS011;1910;49.042;9.028;2023-02-01T07:47:01;10.50;;;4.00;;
3789;SDS011;1910;49.042;9.028;2023-02-01T07:49:26;18.13;;;5.30;;
3789;SDS011;1910;49.042;9.028;2023-02-01T07:51:52;10.63;;;3.30;;
3789;SDS011;1910;49.042;9.028;2023-02-01T07:54:17;9.60;;;5.87;;
3789;SDS011;1910;49.042;9.028;2023-02-01T07:56:43;7.50;;;4.33;;
3789;SDS011;1910;49.042;9.028;2023-02-01T07:59:08;9.00;;;4.33;;
3789;SDS011;1910;49.042;9.028;2023-02-01T08:01:34;8.00;;;4.80;;
3789;SDS011;1910;49.042;9.028;2023-02-01T08:04:01;8.57;;;5.17;;
3789;SDS011;1910;49.042;9.028;2023-02-01T08:06:29;13.45;;;4.57;;
3789;SDS011;1910;49.042;9.028;2023-02-01T08:08:56;8.52;;;5.28;;
3789;SDS011;1910;49.042;9.028;2023-02-01T08:11:22;9.17;;;4.50;;
3789;SDS011;1910;49.042;9.028;2023-02-01T08:13:49;8.27;;;6.78;;
3789;SDS011;1910;49.042;9.028;2023-02-01T08:16:16;8.63;;;4.80;;
3789;SDS011;1910;49.042;9.028;2023-02-01T08:18:43;9.82;;;4.68;;
3789;SDS011;1910;49.042;9.028;2023-02-01T08:23:42;8.48;;;3.17;;
3789;SDS011;1910;49.042;9.028;2023-02-01T08:26:09;10.20;;;4.95;;
3789;SDS011;1910;49.042;9.028;2023-02-01T08:28:37;9.13;;;4.75;;
3789;SDS011;1910;49.042;9.028;2023-02-01T08:31:04;14.77;;;4.43;;
3789;SDS011;1910;49.042;9.028;2023-02-01T08:33:34;8.68;;;5.40;;
3789;SDS011;1910;49.042;9.028;2023-02-01T08:36:01;6.72;;;3.75;;
3789;SDS011;1910;49.042;9.028;2023-02-01T08:38:27;9.13;;;3.50;;
3789;SDS011;1910;49.042;9.028;2023-02-01T08:40:53;9.60;;;3.37;;
3789;SDS011;1910;49.042;9.028;2023-02-01T08:43:18;19.90;;;5.27;;
3789;SDS011;1910;49.042;9.028;2023-02-01T08:45:44;8.63;;;3.80;;
3789;SDS011;1910;49.042;9.028;2023-02-01T08:48:09;12.77;;;4.00;;
3789;SDS011;1910;49.042;9.028;2023-02-01T08:50:35;10.60;;;3.20;;
3789;SDS011;1910;49.042;9.028;2023-02-01T08:53:00;7.00;;;2.90;;
3789;SDS011;1910;49.042;9.028;2023-02-01T08:55:26;6.53;;;3.50;;
3789;SDS011;1910;49.042;9.028;2023-02-01T08:57:52;8.40;;;3.78;;
3789;SDS011;1910;49.042;9.028;2023-02-01T09:00:18;8.23;;;4.70;;
3789;SDS011;1910;49.042;9.028;2023-02-01T09:02:44;10.30;;;4.70;;
3789;SDS011;1910;49.042;9.028;2023-02-01T09:05:10;11.18;;;3.28;;
3789;SDS011;1910;49.042;9.028;2023-02-01T09:07:36;7.22;;;3.60;;
3789;SDS011;1910;49.042;9.028;2023-02-01T09:10:03;12.15;;;2.45;;
3789;SDS011;1910;49.042;9.028;2023-02-01T09:12:30;13.82;;;3.30;;
3789;SDS011;1910;49.042;9.028;2023-02-01T09:14:56;7.47;;;3.20;;
3789;SDS011;1910;49.042;9.028;2023-02-01T09:17:24;15.77;;;4.18;;
3789;SDS011;1910;49.042;9.028;2023-02-01T09:19:51;11.60;;;3.45;;
3789;SDS011;1910;49.042;9.028;2023-02-01T09:22:16;6.23;;;2.70;;
3789;SDS011;1910;49.042;9.028;2023-02-01T09:24:42;2.83;;;2.63;;
3789;SDS011;1910;49.042;9.028;2023-02-01T09:27:08;6.00;;;3.10;;
3789;SDS011;1910;49.042;9.028;2023-02-01T09:29:33;8.30;;;3.07;;
3789;SDS011;1910;49.042;9.028;2023-02-01T09:31:59;5.80;;;2.80;;
3789;SDS011;1910;49.042;9.028;2023-02-01T09:34:24;7.40;;;4.17;;
3789;SDS011;1910;49.042;9.028;2023-02-01T09:36:50;9.50;;;4.20;;
3789;SDS011;1910;49.042;9.028;2023-02-01T09:39:16;10.80;;;4.30;;
3789;SDS011;1910;49.042;9.028;2023-02-01T09:47:09;8.88;;;3.78;;
3789;SDS011;1910;49.042;9.028;2023-02-01T09:49:39;19.52;;;2.83;;
3789;SDS011;1910;49.042;9.028;2023-02-01T09:52:31;9.88;;;2.97;;
3789;SDS011;1910;49.042;9.028;2023-02-01T09:58:09;17.42;;;3.35;;
3789;SDS011;1910;49.042;9.028;2023-02-01T10:00:53;5.80;;;2.80;;
3789;SDS011;1910;49.042;9.028;2023-02-01T10:03:23;11.82;;;3.65;;
3789;SDS011;1910;49.042;9.028;2023-02-01T10:11:27;5.80;;;2.40;;
3789;SDS011;1910;49.042;9.028;2023-02-01T10:14:17;2.92;;;2.05;;
3789;SDS011;1910;49.042;9.028;2023-02-01T10:17:04;5.45;;;2.35;;
3789;SDS011;1910;49.042;9.028;2023-02-01T10:19:55;13.50;;;3.08;;
3789;SDS011;1910;49.042;9.028;2023-02-01T10:22:39;8.32;;;2.13;;
3789;SDS011;1910;49.042;9.028;2023-02-01T10:25:19;6.50;;;2.22;;
3789;SDS011;1910;49.042;9.028;2023-02-01T10:27:50;5.10;;;2.05;;
3789;SDS011;1910;49.042;9.028;2023-02-01T10:32:45;6.22;;;2.55;;
3789;SDS011;1910;49.042;9.028;2023-02-01T10:35:33;10.30;;;3.30;;
3789;SDS011;1910;49.042;9.028;2023-02-01T10:38:01;9.10;;;3.50;;
3789;SDS011;1910;49.042;9.028;2023-02-01T10:40:28;7.60;;;2.40;;
3789;SDS011;1910;49.042;9.028;2023-02-01T10:42:56;5.13;;;3.27;;
3789;SDS011;1910;49.042;9.028;2023-02-01T10:45:25;5.00;;;2.45;;
3789;SDS011;1910;49.042;9.028;2023-02-01T10:47:52;9.02;;;2.90;;
3789;SDS011;1910;49.042;9.028;2023-02-01T10:50:34;6.35;;;3.00;;
3789;SDS011;1910;49.042;9.028;2023-02-01T10:53:12;5.30;;;2.63;;
3789;SDS011;1910;49.042;9.028;2023-02-01T10:58:16;6.27;;;2.50;;
3789;SDS011;1910;49.042;9.028;2023-02-01T11:00:55;7.05;;;3.22;;
3789;SDS011;1910;49.042;9.028;2023-02-01T11:06:09;7.38;;;3.00;;
3789;SDS011;1910;49.042;9.028;2023-02-01T11:08:57;7.38;;;3.40;;
3789;SDS011;1910;49.042;9.028;2023-02-01T11:11:25;10.82;;;2.42;;
3789;SDS011;1910;49.042;9.028;2023-02-01T11:16:34;8.35;;;2.33;;
3789;SDS011;1910;49.042;9.028;2023-02-01T11:19:02;8.55;;;2.50;;
3789;SDS011;1910;49.042;9.028;2023-02-01T11:21:28;9.15;;;3.00;;
3789;SDS011;1910;49.042;9.028;2023-02-01T11:23:54;9.50;;;3.03;;
3789;SDS011;1910;49.042;9.028;2023-02-01T11:26:24;16.63;;;2.85;;
3789;SDS011;1910;49.042;9.028;2023-02-01T11:28:54;9.57;;;3.03;;
3789;SDS011;1910;49.042;9.028;2023-02-01T11:31:33;6.32;;;2.20;;
3789;SDS011;1910;49.042;9.028;2023-02-01T11:34:22;9.38;;;2.45;;
3789;SDS011;1910;49.042;9.028;2023-02-01T11:36:48;13.93;;;2.78;;
3789;SDS011;1910;49.042;9.028;2023-02-01T11:42:02;7.47;;;2.03;;
3789;SDS011;1910;49.042;9.028;2023-02-01T11:44:38;7.18;;;2.05;;
3789;SDS011;1910;49.042;9.028;2023-02-01T11:50:05;11.70;;;2.95;;
3789;SDS011;1910;49.042;9.028;2023-02-01T11:55:36;6.85;;;2.60;;
3789;SDS011;1910;49.042;9.028;2023-02-01T11:58:28;6.88;;;2.15;;
3789;SDS011;1910;49.042;9.028;2023-02-01T12:07:29;15.25;;;2.60;;
3789;SDS011;1910;49.042;9.028;2023-02-01T12:12:30;5.22;;;2.13;;
3789;SDS011;1910;49.042;9.028;2023-02-01T12:17:51;6.75;;;2.30;;
3789;SDS011;1910;49.042;9.028;2023-02-01T12:37:52;17.70;;;2.90;;
3789;SDS011;1910;49.042;9.028;2023-02-01T12:40:28;11.80;;;1.88;;
3789;SDS011;1910;49.042;9.028;2023-02-01T12:43:08;6.45;;;2.83;;
3789;SDS011;1910;49.042;9.028;2023-02-01T12:45:58;4.93;;;2.75;;
3789;SDS011;1910;49.042;9.028;2023-02-01T12:48:38;7.72;;;1.95;;
3789;SDS011;1910;49.042;9.028;2023-02-01T12:51:13;6.07;;;2.13;;
3789;SDS011;1910;49.042;9.028;2023-02-01T12:53:47;13.23;;;3.35;;
3789;SDS011;1910;49.042;9.028;2023-02-01T12:56:26;9.00;;;1.75;;
3789;SDS011;1910;49.042;9.028;2023-02-01T12:58:57;9.43;;;2.53;;
3789;SDS011;1910;49.042;9.028;2023-02-01T13:01:43;5.95;;;1.73;;
3789;SDS011;1910;49.042;9.028;2023-02-01T13:04:20;8.90;;;2.30;;
3789;SDS011;1910;49.042;9.028;2023-02-01T13:07:01;6.40;;;2.42;;
3789;SDS011;1910;49.042;9.028;2023-02-01T13:09:42;6.18;;;1.85;;
3789;SDS011;1910;49.042;9.028;2023-02-01T13:12:24;8.02;;;2.42;;
3789;SDS011;1910;49.042;9.028;2023-02-01T13:15:01;6.57;;;2.90;;
3789;SDS011;1910;49.042;9.028;2023-02-01T13:17:36;5.43;;;2.75;;
3789;SDS011;1910;49.042;9.028;2023-02-01T13:22:36;4.35;;;2.20;;
3789;SDS011;1910;49.042;9.028;2023-02-01T13:25:13;32.25;;;2.50;;
3789;SDS011;1910;49.042;9.028;2023-02-01T13:27:44;10.77;;;2.05;;
3789;SDS011;1910;49.042;9.028;2023-02-01T13:30:22;11.50;;;3.85;;
3789;SDS011;1910;49.042;9.028;2023-02-01T13:35:34;8.38;;;3.35;;
3789;SDS011;1910;49.042;9.028;2023-02-01T13:43:49;9.50;;;3.47;;
3789;SDS011;1910;49.042;9.028;2023-02-01T13:46:17;9.73;;;2.55;;
3789;SDS011;1910;49.042;9.028;2023-02-01T13:48:51;11.40;;;2.83;;
3789;SDS011;1910;49.042;9.028;2023-02-01T13:51:42;5.00;;;2.03;;
3789;SDS011;1910;49.042;9.028;2023-02-01T13:57:00;15.60;;;2.50;;
3789;SDS011;1910;49.042;9.028;2023-02-01T14:05:08;8.93;;;3.00;;
3789;SDS011;1910;49.042;9.028;2023-02-01T14:10:46;9.75;;;2.55;;
3789;SDS011;1910;49.042;9.028;2023-02-01T14:13:34;7.10;;;3.30;;
3789;SDS011;1910;49.042;9.028;2023-02-01T14:24:01;6.15;;;2.05;;
3789;SDS011;1910;49.042;9.028;2023-02-01T14:26:48;6.15;;;2.80;;
3789;SDS011;1910;49.042;9.028;2023-02-01T14:31:59;6.70;;;2.65;;
3789;SDS011;1910;49.042;9.028;2023-02-01T14:37:23;6.80;;;3.13;;
3789;SDS011;1910;49.042;9.028;2023-02-01T14:40:00;5.82;;;1.85;;
3789;SDS011;1910;49.042;9.028;2023-02-01T14:47:51;10.15;;;3.42;;
3789;SDS011;1910;49.042;9.028;2023-02-01T14:50:32;8.20;;;2.30;;
3789;SDS011;1910;49.042;9.028;2023-02-01T14:55:40;12.60;;;3.65;;
3789;SDS011;1910;49.042;9.028;2023-02-01T15:01:22;7.15;;;1.90;;
3789;SDS011;1910;49.042;9.028;2023-02-01T15:09:12;7.22;;;1.92;;
3789;SDS011;1910;49.042;9.028;2023-02-01T15:14:47;5.78;;;2.50;;
3789;SDS011;1910;49.042;9.028;2023-02-01T15:17:29;6.38;;;2.35;;
3789;SDS011;1910;49.042;9.028;2023-02-01T15:20:15;4.20;;;2.85;;
3789;SDS011;1910;49.042;9.028;2023-02-01T15:22:51;8.88;;;2.80;;
3789;SDS011;1910;49.042;9.028;2023-02-01T15:25:29;9.00;;;2.92;;
3789;SDS011;1910;49.042;9.028;2023-02-01T15:28:04;10.05;;;3.28;;
3789;SDS011;1910;49.042;9.028;2023-02-01T15:30:31;12.75;;;2.38;;
3789;SDS011;1910;49.042;9.028;2023-02-01T15:33:15;11.98;;;2.80;;
3789;SDS011;1910;49.042;9.028;2023-02-01T15:35:46;22.08;;;2.45;;
3789;SDS011;1910;49.042;9.028;2023-02-01T15:43:45;16.25;;;3.35;;
3789;SDS011;1910;49.042;9.028;2023-02-01T15:47:04;8.10;;;3.75;;
3789;SDS011;1910;49.042;9.028;2023-02-01T15:49:18;17.40;;;2.78;;
3789;SDS011;1910;49.042;9.028;2023-02-01T15:51:48;11.07;;;2.17;;
3789;SDS011;1910;49.042;9.028;2023-02-01T15:54:19;2.92;;;1.77;;
3789;SDS011;1910;49.042;9.028;2023-02-01T15:56:50;7.47;;;2.95;;
3789;SDS011;1910;49.042;9.028;2023-02-01T15:59:22;6.68;;;3.10;;
3789;SDS011;1910;49.042;9.028;2023-02-01T16:01:53;7.47;;;2.25;;
3789;SDS011;1910;49.042;9.028;2023-02-01T16:04:23;19.93;;;2.67;;
3789;SDS011;1910;49.042;9.028;2023-02-01T16:06:51;7.63;;;2.63;;
3789;SDS011;1910;49.042;9.028;2023-02-01T16:09:20;12.18;;;3.88;;
3789;SDS011;1910;49.042;9.028;2023-02-01T16:11:52;6.70;;;2.92;;
3789;SDS011;1910;49.042;9.028;2023-02-01T16:14:21;19.83;;;2.65;;
3789;SDS011;1910;49.042;9.028;2023-02-01T16:16:47;11.45;;;2.75;;
3789;SDS011;1910;49.042;9.028;2023-02-01T16:19:13;9.80;;;3.03;;
3789;SDS011;1910;49.042;9.028;2023-02-01T16:21:38;4.23;;;2.47;;
3789;SDS011;1910;49.042;9.028;2023-02-01T16:24:04;17.30;;;3.20;;
3789;SDS011;1910;49.042;9.028;2023-02-01T16:26:30;7.10;;;1.77;;
3789;SDS011;1910;49.042;9.028;2023-02-01T16:28:57;9.13;;;3.03;;
3789;SDS011;1910;49.042;9.028;2023-02-01T16:31:26;10.10;;;2.80;;
3789;SDS011;1910;49.042;9.028;2023-02-01T16:33:54;11.85;;;3.40;;
3789;SDS011;1910;49.042;9.028;2023-02-01T16:36:19;7.60;;;2.70;;
3789;SDS011;1910;49.042;9.028;2023-02-01T16:38:46;10.20;;;3.15;;
3789;SDS011;1910;49.042;9.028;2023-02-01T16:41:14;11.07;;;2.80;;
3789;SDS011;1910;49.042;9.028;2023-02-01T16:43:41;5.40;;;2.50;;
3789;SDS011;1910;49.042;9.028;2023-02-01T16:46:11;7.93;;;3.97;;
3789;SDS011;1910;49.042;9.028;2023-02-01T16:48:40;14.88;;;5.18;;
3789;SDS011;1910;49.042;9.028;2023-02-01T16:51:12;8.15;;;3.00;;
3789;SDS011;1910;49.042;9.028;2023-02-01T16:53:41;12.20;;;3.30;;
3789;SDS011;1910;49.042;9.028;2023-02-01T16:56:28;12.17;;;2.50;;
3789;SDS011;1910;49.042;9.028;2023-02-01T16:58:56;10.70;;;2.58;;
3789;SDS011;1910;49.042;9.028;2023-02-01T17:01:23;9.68;;;3.17;;
3789;SDS011;1910;49.042;9.028;2023-02-01T17:03:48;8.77;;;2.78;;
3789;SDS011;1910;49.042;9.028;2023-02-01T17:06:16;16.08;;;3.05;;
3789;SDS011;1910;49.042;9.028;2023-02-01T17:08:44;6.90;;;2.95;;
3789;SDS011;1910;49.042;9.028;2023-02-01T17:11:14;12.80;;;3.40;;
3789;SDS011;1910;49.042;9.028;2023-02-01T17:13:40;7.90;;;1.80;;
3789;SDS011;1910;49.042;9.028;2023-02-01T17:18:58;9.52;;;3.55;;
3789;SDS011;1910;49.042;9.028;2023-02-01T17:21:28;14.77;;;3.03;;
3789;SDS011;1910;49.042;9.028;2023-02-01T17:23:59;7.00;;;3.33;;
3789;SDS011;1910;49.042;9.028;2023-02-01T17:26:25;5.97;;;2.30;;
3789;SDS011;1910;49.042;9.028;2023-02-01T17:28:51;12.13;;;3.30;;
3789;SDS011;1910;49.042;9.028;2023-02-01T17:31:16;4.07;;;2.83;;
3789;SDS011;1910;49.042;9.028;2023-02-01T17:33:43;9.40;;;3.80;;
3789;SDS011;1910;49.042;9.028;2023-02-01T17:36:10;3.75;;;2.05;;
3789;SDS011;1910;49.042;9.028;2023-02-01T17:38:38;10.95;;;2.80;;
3789;SDS011;1910;49.042;9.028;2023-02-01T17:41:03;16.53;;;3.90;;
3789;SDS011;1910;49.042;9.028;2023-02-01T17:43:29;6.00;;;2.20;;
3789;SDS011;1910;49.042;9.028;2023-02-01T17:45:59;8.20;;;2.70;;
3789;SDS011;1910;49.042;9.028;2023-02-01T17:48:28;10.68;;;2.42;;
3789;SDS011;1910;49.042;9.028;2023-02-01T17:50:54;10.93;;;2.40;;
3789;SDS011;1910;49.042;9.028;2023-02-01T17:53:23;14.32;;;2.67;;
3789;SDS011;1910;49.042;9.028;2023-02-01T17:55:53;5.82;;;2.78;;
3789;SDS011;1910;49.042;9.028;2023-02-01T17:58:22;9.52;;;3.33;;
3789;SDS011;1910;49.042;9.028;2023-02-01T18:00:48;8.38;;;3.50;;
3789;SDS011;1910;49.042;9.028;2023-02-01T18:03:19;4.32;;;1.30;;
3789;SDS011;1910;49.042;9.028;2023-02-01T18:05:50;15.57;;;3.03;;
3789;SDS011;1910;49.042;9.028;2023-02-01T18:08:18;6.18;;;2.10;;
3789;SDS011;1910;49.042;9.028;2023-02-01T18:10:55;6.40;;;2.20;;
3789;SDS011;1910;49.042;9.028;2023-02-01T18:13:28;12.15;;;3.13;;
3789;SDS011;1910;49.042;9.028;2023-02-01T18:15:55;9.60;;;2.92;;